Time;durP1;ratioP1;P1;durP2;ratioP2;P2;SDS_P1;SDS_P2;PMS_P1;PMS_P2;Temp;Humidity;BMP_temperature;BMP_pressure;BME280_temperature;BME280_humidity;BME280_pressure;Samples;Min_cycle;Max_cycle;Signal;HPM_P1;HPM_P2
2022/11/06 00:02:11;;;;;;;5.45;4.43;;;;;;;9.35;100.00;101229.66;5076420;28;20046;-81
2022/11/06 00:04:47;;;;;;;6.88;4.50;;;;;;;9.33;100.00;101227.00;5089164;28;20360;-80
2022/11/06 00:07:16;;;;;;;9.90;5.85;;;;;;;9.34;100.00;101217.38;5074073;28;20063;-80
2022/11/06 00:09:44;;;;;;;11.05;5.55;;;;;;;9.31;100.00;101217.31;5097165;28;20046;-80
2022/11/06 00:12:13;;;;;;;10.15;5.25;;;;;;;9.30;100.00;101211.19;5056728;28;20042;-80
2022/11/06 00:14:41;;;;;;;7.55;4.72;;;;;;;9.30;100.00;101199.75;5108252;28;20052;-80
2022/11/06 00:17:09;;;;;;;9.90;4.70;;;;;;;9.27;100.00;101197.97;5068602;28;20036;-82
2022/11/06 00:19:38;;;;;;;6.80;5.32;;;;;;;9.27;100.00;101195.34;5075368;28;20046;-80
2022/11/06 00:22:06;;;;;;;6.53;4.95;;;;;;;9.26;100.00;101190.97;5059896;28;20052;-81
2022/11/06 00:24:35;;;;;;;6.70;5.22;;;;;;;9.26;100.00;101195.31;5106754;28;20230;-81
2022/11/06 00:27:04;;;;;;;6.53;4.82;;;;;;;9.25;100.00;101199.72;5098685;28;20392;-82
2022/11/06 00:29:33;;;;;;;7.68;5.00;;;;;;;9.26;100.00;101203.22;5082744;28;20067;-80
2022/11/06 00:32:01;;;;;;;6.70;5.68;;;;;;;9.25;100.00;101197.06;5087651;28;20051;-82
2022/11/06 00:34:29;;;;;;;6.35;4.90;;;;;;;9.25;100.00;101198.84;5086341;28;20035;-80
2022/11/06 00:37:02;;;;;;;9.13;4.80;;;;;;;9.24;100.00;101203.19;5089390;28;20403;-81
2022/11/06 00:39:31;;;;;;;9.38;5.65;;;;;;;9.22;100.00;101194.38;5078900;27;20437;-81
2022/11/06 00:41:59;;;;;;;7.68;5.30;;;;;;;9.23;100.00;101195.31;5117733;28;20051;-81
2022/11/06 00:44:28;;;;;;;8.90;5.60;;;;;;;9.21;100.00;101197.91;5113778;28;20245;-81
2022/11/06 00:46:57;;;;;;;8.68;5.60;;;;;;;9.20;100.00;101201.38;5065915;27;20034;-81
2022/11/06 00:49:26;;;;;;;9.63;5.50;;;;;;;9.17;100.00;101207.50;5100691;28;20048;-81
2022/11/06 00:51:55;;;;;;;8.57;5.90;;;;;;;9.14;100.00;101202.16;5105545;28;20052;-81
2022/11/06 00:54:24;;;;;;;10.80;5.97;;;;;;;9.12;100.00;101200.41;5032322;28;20060;-80
2022/11/06 00:56:55;;;;;;;10.45;6.13;;;;;;;9.07;100.00;101196.81;5033544;28;20049;-81
2022/11/06 00:59:23;;;;;;;14.77;7.15;;;;;;;9.04;100.00;101191.53;5049105;28;20080;-81
2022/11/06 01:01:52;;;;;;;12.63;6.57;;;;;;;9.02;100.00;101196.75;5031733;28;20053;-81
2022/11/06 01:04:23;;;;;;;12.82;6.80;;;;;;;9.00;100.00;101194.94;5015378;28;20041;-80
2022/11/06 01:06:55;;;;;;;8.60;6.50;;;;;;;8.97;100.00;101201.91;5035826;28;20045;-81
2022/11/06 01:09:27;;;;;;;12.50;7.10;;;;;;;8.93;100.00;101191.34;5008074;28;21704;-81
2022/11/06 01:11:58;;;;;;;10.68;7.47;;;;;;;8.90;100.00;101191.28;5027986;28;20073;-80
2022/11/06 01:14:42;;;;;;;10.50;7.85;;;;;;;8.89;100.00;101194.78;5036616;28;20453;-81
2022/11/06 01:17:11;;;;;;;13.20;7.55;;;;;;;8.87;100.00;101181.63;5036913;28;20052;-81
2022/11/06 01:19:40;;;;;;;12.35;8.20;;;;;;;8.85;100.00;101185.97;5050043;28;20060;-81
2022/11/06 01:22:09;;;;;;;8.95;7.10;;;;;;;8.84;100.00;101181.56;5049935;28;20045;-81
2022/11/06 01:24:37;;;;;;;11.88;7.93;;;;;;;8.82;100.00;101180.66;5014339;28;20466;-81
2022/11/06 01:27:09;;;;;;;12.77;7.45;;;;;;;8.81;100.00;101176.28;5029878;28;20036;-81
2022/11/06 01:29:55;;;;;;;16.38;9.32;;;;;;;8.79;100.00;101172.75;5060136;28;20048;-80
2022/11/06 01:32:24;;;;;;;13.02;8.48;;;;;;;8.80;100.00;101168.38;5084212;28;20248;-80
2022/11/06 01:34:52;;;;;;;16.38;8.85;;;;;;;8.78;100.00;101173.59;5088460;28;20067;-79
2022/11/06 01:37:22;;;;;;;13.80;7.63;;;;;;;8.77;100.00;101169.19;5070723;28;20588;-81
2022/11/06 01:39:50;;;;;;;13.43;7.57;;;;;;;8.75;100.00;101163.03;5084660;28;20291;-81
2022/11/06 01:42:22;;;;;;;13.05;8.18;;;;;;;8.75;100.00;101160.38;5048501;27;20498;-82
2022/11/06 01:45:28;;;;;;;12.48;7.95;;;;;;;8.74;100.00;101162.16;5076850;28;20043;-82
2022/11/06 01:47:56;;;;;;;16.05;8.32;;;;;;;8.72;100.00;101166.50;5074588;28;20040;-82
2022/11/06 01:50:26;;;;;;;12.32;8.23;;;;;;;8.72;100.00;101155.97;5063559;28;20433;-80
2022/11/06 01:52:55;;;;;;;12.38;8.15;;;;;;;8.73;100.00;101154.22;5088962;28;20047;-80
2022/11/06 01:55:30;;;;;;;10.32;7.90;;;;;;;8.74;100.00;101154.25;5078373;28;20424;-79
2022/11/06 01:58:02;;;;;;;18.05;8.35;;;;;;;8.75;100.00;101157.75;5063023;28;20409;-82
2022/11/06 02:00:31;;;;;;;10.85;8.05;;;;;;;8.75;100.00;101155.13;5099190;28;20051;-81
2022/11/06 02:03:00;;;;;;;12.32;7.68;;;;;;;8.76;100.00;101154.28;5086124;28;20056;-82
2022/11/06 02:05:30;;;;;;;16.95;8.77;;;;;;;8.75;100.00;101149.88;5085668;28;20047;-82
2022/11/06 02:07:59;;;;;;;15.23;8.93;;;;;;;8.75;100.00;101148.16;5109097;28;20059;-82
2022/11/06 02:10:29;;;;;;;12.05;8.30;;;;;;;8.75;100.00;101142.00;5107660;28;20043;-81
2022/11/06 02:13:24;;;;;;;14.20;9.10;;;;;;;8.77;100.00;101150.78;5094359;28;20039;-82
2022/11/06 02:16:03;;;;;;;15.55;9.10;;;;;;;8.75;100.00;101139.38;5092172;28;20044;-81
2022/11/06 02:18:44;;;;;;;12.32;8.20;;;;;;;8.75;100.00;101134.13;5063014;28;20146;-81
2022/11/06 02:21:32;;;;;;;12.40;8.32;;;;;;;8.73;100.00;101125.31;5096165;28;20047;-81
2022/11/06 02:24:20;;;;;;;13.40;8.50;;;;;;;8.70;100.00;101118.31;5060237;28;20044;-80
2022/11/06 02:27:10;;;;;;;12.98;7.70;;;;;;;8.71;100.00;101122.66;5094254;28;20036;-80
2022/11/06 02:29:45;;;;;;;14.30;8.85;;;;;;;8.71;100.00;101121.78;5098351;27;20039;-81
2022/11/06 02:32:26;;;;;;;13.15;8.95;;;;;;;8.71;100.00;101119.16;5107278;28;20050;-81
2022/11/06 02:34:58;;;;;;;15.88;8.20;;;;;;;8.70;100.00;101117.44;5091977;27;20043;-81
2022/11/06 02:37:31;;;;;;;17.05;8.18;;;;;;;8.71;100.00;101127.06;5113841;27;20036;-80
2022/11/06 02:40:06;;;;;;;16.52;8.65;;;;;;;8.72;100.00;101121.84;5080308;28;20035;-81
2022/11/06 02:42:40;;;;;;;12.30;8.63;;;;;;;8.72;100.00;101120.97;5070233;28;20277;-81
2022/11/06 02:45:12;;;;;;;17.20;8.90;;;;;;;8.71;100.00;101116.53;5092129;28;20051;-81
2022/11/06 02:47:43;;;;;;;15.52;8.85;;;;;;;8.72;100.00;101102.56;5094690;28;20050;-81
2022/11/06 02:50:21;;;;;;;15.93;9.75;;;;;;;8.72;100.00;101113.94;5080293;28;20051;-81
2022/11/06 02:53:03;;;;;;;13.52;8.55;;;;;;;8.71;100.00;101106.91;5095797;28;20035;-81
2022/11/06 02:55:42;;;;;;;10.43;9.25;;;;;;;8.71;100.00;101117.41;5090450;28;20051;-80
2022/11/06 02:58:34;;;;;;;15.45;9.38;;;;;;;8.72;100.00;101108.69;5065408;28;20028;-81
2022/11/06 03:01:17;;;;;;;14.35;9.27;;;;;;;8.71;100.00;101106.91;5091241;28;20389;-81
2022/11/06 03:03:51;;;;;;;16.42;9.15;;;;;;;8.70;100.00;101107.78;5076309;28;20052;-81
2022/11/06 03:06:34;;;;;;;12.63;8.70;;;;;;;8.71;100.00;101111.28;5089727;28;20554;-80
2022/11/06 03:09:08;;;;;;;15.02;9.48;;;;;;;8.70;100.00;101113.03;5095362;28;20046;-81
2022/11/06 03:11:38;;;;;;;14.73;9.27;;;;;;;8.69;100.00;101123.53;5099167;28;20059;-81
2022/11/06 03:14:21;;;;;;;16.92;9.63;;;;;;;8.71;100.00;101124.44;5044806;28;20524;-80
2022/11/06 03:16:55;;;;;;;15.15;9.18;;;;;;;8.71;100.00;101116.53;5097981;28;20401;-81
2022/11/06 03:19:36;;;;;;;16.30;9.93;;;;;;;8.70;100.00;101127.94;5088906;28;20043;-81
2022/11/06 03:22:09;;;;;;;18.80;10.20;;;;;;;8.69;100.00;101120.91;5102342;28;20088;-81
2022/11/06 03:25:04;;;;;;;12.05;9.45;;;;;;;8.69;100.00;101124.41;5103099;28;20047;-81
2022/11/06 03:27:40;;;;;;;16.52;9.57;;;;;;;8.69;100.00;101126.16;5074519;28;20070;-81
2022/11/06 03:30:12;;;;;;;14.75;9.27;;;;;;;8.68;100.00;101111.25;5062967;28;20047;-82
2022/11/06 03:33:00;;;;;;;16.70;10.02;;;;;;;8.69;100.00;101110.38;5077170;28;20036;-79
2022/11/06 03:35:38;;;;;;;12.05;9.27;;;;;;;8.69;100.00;101113.00;5088882;28;20678;-79
2022/11/06 03:38:24;;;;;;;13.82;9.73;;;;;;;8.69;100.00;101108.63;5083696;28;20043;-80
2022/11/06 03:40:57;;;;;;;14.15;9.90;;;;;;;8.70;100.00;101117.44;5074400;28;20059;-80
2022/11/06 03:43:31;;;;;;;15.38;9.32;;;;;;;8.70;100.00;101115.66;5087926;28;20256;-81
2022/11/06 03:46:03;;;;;;;11.05;9.05;;;;;;;8.70;100.00;101109.53;5067220;28;20039;-81
2022/11/06 03:48:39;;;;;;;15.82;9.00;;;;;;;8.69;100.00;101113.88;5072791;28;20048;-81
2022/11/06 03:51:56;;;;;;;10.80;8.43;;;;;;;8.68;100.00;101109.50;5091341;28;20070;-82
2022/11/06 03:54:41;;;;;;;13.00;9.38;;;;;;;8.68;100.00;101113.88;5055131;28;20616;-81
2022/11/06 03:57:22;;;;;;;10.98;9.00;;;;;;;8.69;100.00;101105.13;5101154;28;20040;-82
2022/11/06 03:59:57;;;;;;;11.10;8.48;;;;;;;8.71;100.00;101106.03;5072533;28;20043;-81
2022/11/06 04:02:30;;;;;;;15.35;8.25;;;;;;;8.70;100.00;101110.41;5082376;28;20056;-82
2022/11/06 04:05:05;;;;;;;13.73;8.82;;;;;;;8.71;100.00;101103.41;5072931;28;20028;-82
2022/11/06 04:13:55;;;;;;;16.02;8.75;;;;;;;8.71;100.00;101112.16;5104766;28;20639;-81
2022/11/06 04:16:25;;;;;;;10.00;7.90;;;;;;;8.72;100.00;101102.56;5050164;28;20044;-80
2022/11/06 04:18:54;;;;;;;10.40;7.88;;;;;;;8.72;100.00;101107.81;5078070;28;20051;-80
2022/11/06 04:21:46;;;;;;;13.80;8.10;;;;;;;8.72;100.00;101113.06;5079399;28;20052;-80
2022/11/06 04:28:14;;;;;;;12.15;7.90;;;;;;;8.72;100.00;101107.81;5106424;28;20059;-81
2022/11/06 04:30:59;;;;;;;10.68;7.53;;;;;;;8.71;100.00;101103.41;5071770;28;20059;-81
2022/11/06 04:33:48;;;;;;;12.15;7.82;;;;;;;8.71;100.00;101112.16;5073899;28;20062;-82
2022/11/06 04:36:53;;;;;;;9.25;7.68;;;;;;;8.70;100.00;101104.28;5070926;28;20189;-81
2022/11/06 04:39:30;;;;;;;7.57;6.80;;;;;;;8.69;100.00;101110.38;5076667;28;20050;-81
2022/11/06 04:42:04;;;;;;;10.70;7.13;;;;;;;8.69;100.00;101108.63;5040741;28;20052;-81
2022/11/06 04:44:38;;;;;;;15.13;7.88;;;;;;;8.70;100.00;101107.78;5100604;28;20055;-81
2022/11/06 04:47:11;;;;;;;11.48;7.82;;;;;;;8.70;100.00;101107.78;5024678;28;20055;-82
2022/11/06 04:49:43;;;;;;;15.38;6.97;;;;;;;8.69;100.00;101106.00;5098895;28;20040;-81
2022/11/06 04:52:18;;;;;;;10.90;7.57;;;;;;;8.69;100.00;101097.25;5061214;28;20055;-82
2022/11/06 04:54:47;;;;;;;12.88;6.70;;;;;;;8.70;100.00;101101.66;5097269;28;20055;-82
2022/11/06 04:57:15;;;;;;;8.13;6.20;;;;;;;8.70;100.00;101101.66;5101914;28;20048;-80
2022/11/06 04:59:44;;;;;;;10.73;7.03;;;;;;;8.70;100.00;101099.91;5056515;28;20039;-80
2022/11/06 05:02:12;;;;;;;10.48;6.85;;;;;;;8.71;100.00;101106.03;5028987;28;20055;-80
2022/11/06 05:04:41;;;;;;;11.13;6.47;;;;;;;8.72;100.00;101107.81;5069205;28;20074;-80
2022/11/06 05:07:14;;;;;;;10.93;7.60;;;;;;;8.71;100.00;101098.16;5063019;28;20047;-80
2022/11/06 05:09:44;;;;;;;12.80;6.95;;;;;;;8.72;100.00;101099.94;5056493;28;20036;-80
2022/11/06 05:12:12;;;;;;;8.50;6.53;;;;;;;8.70;100.00;101104.28;5065224;28;20078;-79
2022/11/06 05:14:41;;;;;;;13.80;6.60;;;;;;;8.69;100.00;101098.13;5101843;28;20071;-83
2022/11/06 05:17:09;;;;;;;12.43;6.70;;;;;;;8.68;100.00;101091.13;5103796;28;20043;-81
2022/11/06 05:19:37;;;;;;;9.95;7.10;;;;;;;8.70;100.00;101084.16;5049356;28;20036;-81
2022/11/06 05:24:55;;;;;;;10.45;6.90;;;;;;;8.69;100.00;101071.84;5101223;28;20055;-80
2022/11/06 05:27:24;;;;;;;10.98;6.40;;;;;;;8.70;100.00;101068.38;5086165;28;20103;-78
2022/11/06 05:29:52;;;;;;;9.50;6.50;;;;;;;8.70;100.00;101064.88;5078837;28;20059;-80
2022/11/06 05:32:21;;;;;;;10.90;6.25;;;;;;;8.69;100.00;101060.47;5088918;28;20035;-80
2022/11/06 05:34:49;;;;;;;11.60;6.63;;;;;;;8.69;100.00;101066.59;5088290;28;20366;-80
2022/11/06 05:37:18;;;;;;;8.30;5.82;;;;;;;8.69;100.00;101050.84;5074666;28;20327;-80
2022/11/06 05:39:46;;;;;;;9.68;6.28;;;;;;;8.70;100.00;101062.25;5081128;28;20392;-80
2022/11/06 05:42:15;;;;;;;11.68;6.57;;;;;;;8.72;100.00;101057.91;5087635;27;20044;-80
2022/11/06 05:44:43;;;;;;;10.15;6.20;;;;;;;8.71;100.00;101057.00;5093680;28;20059;-79
2022/11/06 05:47:12;;;;;;;8.80;6.25;;;;;;;8.72;100.00;101058.78;5056812;28;20153;-80
2022/11/06 05:49:40;;;;;;;9.65;5.55;;;;;;;8.74;100.00;101053.53;5086406;28;20036;-81
2022/11/06 05:52:08;;;;;;;11.75;5.75;;;;;;;8.71;100.00;101043.84;5078703;28;20055;-80
2022/11/06 05:54:37;;;;;;;8.10;5.30;;;;;;;8.72;100.00;101047.38;5089933;28;20059;-79
2022/11/06 05:57:05;;;;;;;9.45;5.68;;;;;;;8.71;100.00;101045.59;5089025;28;20051;-80
2022/11/06 05:59:33;;;;;;;9.55;5.57;;;;;;;8.74;100.00;101048.28;5069371;28;20042;-79
2022/11/06 06:02:03;;;;;;;12.00;5.82;;;;;;;8.72;100.00;101047.38;5085683;28;20488;-79
2022/11/06 06:04:32;;;;;;;14.07;5.67;;;;;;;8.73;100.00;101043.88;5107740;28;20051;-79
2022/11/06 06:07:01;;;;;;;7.03;5.30;;;;;;;8.72;100.00;101050.88;5044606;28;20044;-80
2022/11/06 06:09:30;;;;;;;11.02;5.15;;;;;;;8.73;100.00;101043.88;5066590;28;20040;-80
2022/11/06 06:11:58;;;;;;;6.97;4.95;;;;;;;8.72;100.00;101042.13;5062684;28;20048;-80
2022/11/06 06:14:27;;;;;;;9.45;5.30;;;;;;;8.74;100.00;101037.78;5077550;28;20035;-79
2022/11/06 06:16:55;;;;;;;8.68;5.35;;;;;;;8.74;100.00;101051.78;5106942;28;20467;-80
2022/11/06 06:19:24;;;;;;;10.90;5.75;;;;;;;8.75;100.00;101044.78;5068864;28;20272;-79
2022/11/06 06:21:53;;;;;;;6.78;4.78;;;;;;;8.75;100.00;101050.03;5036407;28;20035;-80
2022/11/06 06:24:22;;;;;;;14.80;5.97;;;;;;;8.76;100.00;101030.81;5066443;27;20313;-80
2022/11/06 06:26:50;;;;;;;8.52;5.35;;;;;;;8.76;100.00;101031.66;5080820;28;20044;-80
2022/11/06 06:29:19;;;;;;;8.52;5.15;;;;;;;8.77;100.00;101043.06;5064556;27;24667;-79
2022/11/06 06:31:48;;;;;;;7.38;4.55;;;;;;;8.77;100.00;101043.97;5076130;28;20047;-80
2022/11/06 06:34:18;;;;;;;7.22;4.80;;;;;;;8.77;100.00;101033.44;5089792;28;20137;-79
2022/11/06 06:36:51;;;;;;;8.87;4.90;;;;;;;8.78;100.00;101037.81;5069065;28;20043;-80
2022/11/06 06:39:22;;;;;;;13.80;5.03;;;;;;;8.79;100.00;101046.63;5110911;28;20188;-80
2022/11/06 06:41:50;;;;;;;7.80;4.68;;;;;;;8.79;100.00;101046.63;5108015;28;20038;-80
2022/11/06 06:44:18;;;;;;;17.33;4.97;;;;;;;8.80;100.00;101047.50;5070386;27;20548;-81
2022/11/06 06:46:47;;;;;;;14.13;6.15;;;;;;;8.80;100.00;101064.13;5097082;28;20058;-80
2022/11/06 06:49:16;;;;;;;10.57;4.18;;;;;;;8.81;100.00;101070.25;5074295;28;20664;-80
2022/11/06 06:51:47;;;;;;;12.55;4.47;;;;;;;8.81;100.00;101071.16;5048733;28;20035;-80
2022/11/06 06:54:15;;;;;;;10.65;4.28;;;;;;;8.82;100.00;101075.53;5075345;28;20070;-80
2022/11/06 06:56:44;;;;;;;9.75;4.47;;;;;;;8.82;100.00;101067.66;5089203;28;20047;-80
2022/11/06 06:59:12;;;;;;;6.47;3.70;;;;;;;8.83;100.00;101074.69;5086056;28;20055;-80
2022/11/06 07:01:45;;;;;;;8.27;4.00;;;;;;;8.84;100.00;101078.19;5058051;28;20042;-80
2022/11/06 07:04:13;;;;;;;8.50;3.80;;;;;;;8.85;100.00;101078.22;5076375;28;20708;-80
2022/11/06 07:06:42;;;;;;;8.07;4.22;;;;;;;8.87;100.00;101080.88;5093256;28;20055;-80
2022/11/06 07:09:10;;;;;;;7.65;4.13;;;;;;;8.88;100.00;101075.63;5044532;28;20379;-80
2022/11/06 07:11:38;;;;;;;7.13;3.90;;;;;;;8.89;100.00;101073.91;5060908;28;20031;-80
2022/11/06 07:14:09;;;;;;;11.35;4.32;;;;;;;8.91;100.00;101080.06;5082321;28;20047;-80
2022/11/06 07:16:37;;;;;;;8.65;3.90;;;;;;;8.91;100.00;101073.03;5100015;28;20036;-81
2022/11/06 07:19:06;;;;;;;7.88;4.20;;;;;;;8.93;100.00;101073.94;5111353;28;20048;-80
2022/11/06 07:21:34;;;;;;;12.95;4.13;;;;;;;8.94;100.00;101065.22;5108589;28;20048;-79
2022/11/06 07:24:03;;;;;;;10.05;4.55;;;;;;;8.96;100.00;101071.38;5033674;28;20051;-81
2022/11/06 07:26:32;;;;;;;9.80;3.83;;;;;;;8.98;100.00;101064.38;5109188;28;20044;-80
2022/11/06 07:29:01;;;;;;;12.25;5.40;;;;;;;9.01;100.00;101071.41;5058439;28;20036;-79
2022/11/06 07:31:30;;;;;;;10.93;3.90;;;;;;;9.02;100.00;101070.56;5042980;28;20024;-80
2022/11/06 07:33:58;;;;;;;7.13;3.88;;;;;;;9.03;100.00;101064.44;5080326;28;20389;-80
2022/11/06 07:36:27;;;;;;;10.07;4.25;;;;;;;9.07;100.00;101062.72;5101085;28;20052;-80
2022/11/06 07:38:56;;;;;;;9.20;3.72;;;;;;;9.09;100.00;101056.66;5062510;28;20039;-80
2022/11/06 07:41:25;;;;;;;9.73;3.95;;;;;;;9.14;100.00;101069.84;5085647;28;20056;-80
2022/11/06 07:43:53;;;;;;;8.35;3.47;;;;;;;9.17;100.00;101072.50;5095332;27;20047;-81
2022/11/06 07:46:21;;;;;;;8.55;4.05;;;;;;;9.21;100.00;101070.81;5058319;28;20055;-79
2022/11/06 07:48:50;;;;;;;9.57;3.65;;;;;;;9.24;100.00;101060.31;5089873;28;20050;-81
2022/11/06 07:51:19;;;;;;;8.60;3.50;;;;;;;9.28;100.00;101059.47;5044345;28;20139;-80
2022/11/06 07:53:48;;;;;;;10.68;3.30;;;;;;;9.31;100.00;101055.13;5062302;28;20040;-80
2022/11/06 07:56:16;;;;;;;8.60;3.65;;;;;;;9.34;100.00;101057.81;5076816;28;20047;-81
2022/11/06 07:58:44;;;;;;;7.18;3.13;;;;;;;9.36;100.00;101055.22;5101601;28;20043;-80
2022/11/06 08:01:17;;;;;;;8.77;3.30;;;;;;;9.41;100.00;101050.00;5076379;27;20171;-80
2022/11/06 08:03:52;;;;;;;7.78;2.95;;;;;;;9.44;100.00;101047.41;5093055;28;20024;-80
2022/11/06 08:06:21;;;;;;;11.93;3.42;;;;;;;9.47;100.00;101055.31;5103674;28;20040;-80
2022/11/06 08:08:49;;;;;;;9.25;3.40;;;;;;;9.50;100.00;101052.72;5096390;28;20058;-80
2022/11/06 08:11:33;;;;;;;9.13;4.18;;;;;;;9.52;100.00;101054.50;5043426;28;20036;-80
2022/11/06 08:14:02;;;;;;;6.57;3.03;;;;;;;9.53;100.00;101058.91;5108790;28;20047;-81
2022/11/06 08:16:30;;;;;;;7.03;3.15;;;;;;;9.54;100.00;101054.50;5074824;28;20052;-80
2022/11/06 08:18:59;;;;;;;7.35;3.15;;;;;;;9.55;100.00;101051.03;5065488;28;20043;-81
2022/11/06 08:21:27;;;;;;;8.70;3.28;;;;;;;9.54;100.00;101051.88;5089193;28;20040;-80
2022/11/06 08:23:56;;;;;;;11.38;2.92;;;;;;;9.52;100.00;101041.34;5087077;28;20535;-80
2022/11/06 08:26:26;;;;;;;9.23;3.30;;;;;;;9.50;100.00;101042.19;5080635;28;20429;-80
2022/11/06 08:28:56;;;;;;;5.60;2.83;;;;;;;9.48;100.00;101041.31;5069410;28;20035;-81
2022/11/06 08:31:26;;;;;;;8.75;2.65;;;;;;;9.46;100.00;101035.16;5075966;28;20277;-80
2022/11/06 08:33:54;;;;;;;8.02;3.00;;;;;;;9.42;100.00;101028.09;5068662;28;20415;-81
2022/11/06 08:36:23;;;;;;;10.32;3.20;;;;;;;9.40;100.00;101030.69;5065908;28;20048;-81
2022/11/06 08:38:53;;;;;;;7.22;2.63;;;;;;;9.38;100.00;101024.53;5087567;28;20396;-82
2022/11/06 08:41:27;;;;;;;5.93;2.55;;;;;;;9.38;100.00;101036.81;5053042;28;21068;-82
2022/11/06 08:43:55;;;;;;;8.55;2.70;;;;;;;9.35;100.00;101035.91;5067069;28;20039;-81
2022/11/06 08:46:24;;;;;;;7.05;2.92;;;;;;;9.36;100.00;101044.69;5078698;28;20047;-81
2022/11/06 08:48:52;;;;;;;11.77;2.90;;;;;;;9.34;100.00;101047.31;5101725;27;20392;-80
2022/11/06 08:51:20;;;;;;;7.18;2.97;;;;;;;9.31;100.00;101031.47;5084449;28;20051;-81
2022/11/06 08:53:50;;;;;;;6.43;3.10;;;;;;;9.31;100.00;101017.44;5081511;28;20031;-80
2022/11/06 08:56:19;;;;;;;7.07;3.15;;;;;;;9.31;100.00;101015.69;5033643;28;20048;-81
2022/11/06 08:58:47;;;;;;;5.22;2.45;;;;;;;9.32;100.00;101021.84;5007493;28;20056;-80
2022/11/06 09:01:26;;;;;;;9.20;3.00;;;;;;;9.32;100.00;101017.47;5031135;28;20273;-79
2022/11/06 09:03:56;;;;;;;11.73;3.30;;;;;;;9.32;100.00;101016.59;5043540;28;20040;-80
2022/11/06 09:06:24;;;;;;;5.65;2.72;;;;;;;9.31;100.00;101023.59;5058663;28;20583;-80
2022/11/06 09:08:53;;;;;;;11.50;2.65;;;;;;;9.33;100.00;101023.59;5056401;28;20108;-81
2022/11/06 09:11:21;;;;;;;8.85;2.92;;;;;;;9.34;100.00;101022.75;5065851;28;20605;-79
2022/11/06 09:13:50;;;;;;;9.32;2.92;;;;;;;9.34;100.00;101021.00;5041137;28;20044;-80
2022/11/06 09:16:18;;;;;;;8.52;2.55;;;;;;;9.37;100.00;101007.00;5063791;28;20051;-81
2022/11/06 09:18:46;;;;;;;9.80;4.03;;;;;;;9.44;100.00;101008.81;5057984;28;20055;-79
2022/11/06 09:21:15;;;;;;;13.10;3.63;;;;;;;9.50;100.00;101006.25;5040766;28;20045;-80
2022/11/06 09:23:44;;;;;;;11.00;2.80;;;;;;;9.55;100.00;101008.94;5045920;28;20076;-79
2022/11/06 09:26:13;;;;;;;9.47;3.10;;;;;;;9.57;100.00;100994.91;5017235;28;20048;-79
2022/11/06 09:28:42;;;;;;;9.23;2.58;;;;;;;9.63;100.00;100990.59;5039710;28;20044;-82
2022/11/06 09:31:11;;;;;;;11.13;2.65;;;;;;;9.66;100.00;100988.88;5087991;28;20032;-82
2022/11/06 09:33:39;;;;;;;6.78;2.95;;;;;;;9.70;100.00;100981.91;5099130;28;20043;-82
2022/11/06 09:36:08;;;;;;;10.38;2.88;;;;;;;9.75;100.00;100981.06;5088161;27;20039;-81
2022/11/06 09:38:36;;;;;;;10.77;3.10;;;;;;;9.78;100.00;100974.94;5099208;28;20055;-82
2022/11/06 09:41:05;;;;;;;11.75;2.92;;;;;;;9.86;100.00;100977.63;5078708;28;20048;-83
2022/11/06 09:44:08;;;;;;;9.70;2.97;;;;;;;9.92;100.00;100973.31;5033972;28;20043;-82
2022/11/06 09:46:43;;;;;;;5.88;2.22;;;;;;;10.00;100.00;100960.22;5099824;27;20059;-82
2022/11/06 09:49:30;;;;;;;5.85;2.55;;;;;;;10.07;100.00;100961.13;5107373;27;20040;-82
2022/11/06 09:52:07;;;;;;;9.45;2.13;;;;;;;10.08;100.00;100947.97;5084462;27;20523;-82
2022/11/06 09:54:45;;;;;;;9.02;2.75;;;;;;;10.10;100.00;100946.22;5099872;28;20516;-82
2022/11/06 09:57:36;;;;;;;4.93;2.10;;;;;;;10.11;100.00;100950.63;5103794;28;20047;-82
2022/11/06 10:00:06;;;;;;;5.78;2.20;;;;;;;10.12;100.00;100943.59;5078004;28;20047;-84
2022/11/06 10:02:59;;;;;;;3.80;2.03;;;;;;;10.12;100.00;100944.47;5087633;28;20044;-82
2022/11/06 10:05:33;;;;;;;9.77;2.40;;;;;;;10.13;100.00;100943.63;5084507;28;20451;-83
2022/11/06 10:08:14;;;;;;;7.35;2.53;;;;;;;10.14;100.00;100941.88;5071258;27;20044;-83
2022/11/06 10:11:13;;;;;;;7.13;2.17;;;;;;;10.15;100.00;100936.59;5092209;28;20032;-83
2022/11/06 10:14:00;;;;;;;5.95;2.30;;;;;;;10.18;100.00;100940.13;5067387;28;20043;-83
2022/11/06 10:16:34;;;;;;;8.93;2.30;;;;;;;10.19;100.00;100940.16;5080645;28;20556;-83
2022/11/06 10:19:15;;;;;;;8.40;2.40;;;;;;;10.23;100.00;100946.31;5091538;28;20137;-83
2022/11/06 10:21:53;;;;;;;7.50;2.20;;;;;;;10.26;100.00;100943.69;5081460;28;20044;-83
2022/11/06 10:24:35;;;;;;;6.40;2.40;;;;;;;10.31;100.00;100940.25;5071643;28;20544;-82
2022/11/06 10:27:14;;;;;;;6.00;3.00;;;;;;;10.33;100.00;100938.50;5107626;28;20059;-84
2022/11/06 10:30:14;;;;;;;3.17;1.90;;;;;;;10.38;100.00;100946.44;5072277;28;20047;-83
2022/11/06 10:32:52;;;;;;;4.50;1.92;;;;;;;10.42;100.00;100942.06;5097696;28;20069;-83
2022/11/06 10:35:29;;;;;;;8.13;2.38;;;;;;;10.43;100.00;100934.16;5094701;27;20024;-83
2022/11/06 10:38:26;;;;;;;8.70;3.25;;;;;;;10.47;100.00;100933.31;5105176;28;20405;-84
2022/11/06 10:41:01;;;;;;;5.30;2.40;;;;;;;10.52;100.00;100935.97;5109892;28;20047;-84
2022/11/06 10:43:34;;;;;;;7.60;2.28;;;;;;;10.54;100.00;100935.09;5071086;28;20273;-83
2022/11/06 10:46:08;;;;;;;4.13;1.92;;;;;;;10.59;100.00;100932.47;5077197;28;20044;-84
2022/11/06 10:48:42;;;;;;;4.68;1.98;;;;;;;10.64;100.00;100935.13;5095506;28;20047;-83
2022/11/06 10:51:35;;;;;;;7.47;2.10;;;;;;;10.68;100.00;100924.63;5069566;28;20130;-83
2022/11/06 10:54:22;;;;;;;4.40;2.33;;;;;;;10.77;100.00;100920.25;5096111;28;20032;-84
2022/11/06 10:57:06;;;;;;;6.95;2.00;;;;;;;10.83;100.00;100908.00;5061331;28;20040;-84
2022/11/06 10:59:34;;;;;;;5.55;2.05;;;;;;;10.90;100.00;100911.50;5110755;28;20046;-83
2022/11/06 11:02:06;;;;;;;5.10;2.20;;;;;;;10.95;100.00;100903.63;5080841;28;20052;-84
2022/11/06 11:04:36;;;;;;;10.07;2.17;;;;;;;10.98;100.00;100912.41;5058697;28;20070;-84
2022/11/06 11:07:14;;;;;;;7.22;1.85;;;;;;;11.03;100.00;100907.16;5047983;28;20532;-84
2022/11/06 11:09:49;;;;;;;5.40;1.70;;;;;;;11.08;100.00;100902.78;5110212;28;20063;-82
2022/11/06 11:12:28;;;;;;;5.93;1.95;;;;;;;11.11;100.00;100887.84;5091617;28;20040;-83
2022/11/06 11:15:24;;;;;;;6.35;1.70;;;;;;;11.14;100.00;100888.72;5106421;28;20482;-82
2022/11/06 11:18:12;;;;;;;4.95;1.83;;;;;;;11.16;100.00;100882.56;5090809;28;20051;-83
2022/11/06 11:20:45;;;;;;;8.68;1.95;;;;;;;11.17;100.00;100868.50;5058119;28;20048;-82
2022/11/06 11:23:32;;;;;;;5.97;2.10;;;;;;;11.17;100.00;100867.59;5085406;28;20036;-83
2022/11/06 11:26:26;;;;;;;9.50;2.00;;;;;;;11.18;100.00;100872.88;5080326;28;20036;-80
2022/11/06 11:29:01;;;;;;;6.28;1.38;;;;;;;11.17;100.00;100860.59;5084898;28;20051;-82
2022/11/06 11:31:34;;;;;;;6.47;1.98;;;;;;;11.19;100.00;100847.38;5081671;28;20035;-81
2022/11/06 11:34:05;;;;;;;6.72;1.70;;;;;;;11.20;100.00;100844.75;5076991;28;20044;-81
2022/11/06 11:36:57;;;;;;;8.75;2.55;;;;;;;11.21;100.00;100846.53;5071120;28;20492;-78
2022/11/06 11:39:44;;;;;;;8.93;2.28;;;;;;;11.20;100.00;100835.97;5091614;28;20444;-79
2022/11/06 11:42:25;;;;;;;7.68;2.00;;;;;;;11.17;100.00;100836.84;5082102;28;20169;-79
2022/11/06 11:45:09;;;;;;;4.45;2.03;;;;;;;11.14;100.00;100836.84;5090225;28;20044;-80
2022/11/06 11:48:01;;;;;;;4.90;1.88;;;;;;;11.09;100.00;100833.31;5059770;28;20039;-80
2022/11/06 11:50:32;;;;;;;4.30;2.00;;;;;;;11.02;100.00;100828.91;5098235;28;20054;-79
2022/11/06 11:53:17;;;;;;;4.60;2.05;;;;;;;10.97;100.00;100831.56;5082789;28;20491;-81
2022/11/06 11:55:49;;;;;;;8.90;2.15;;;;;;;10.90;100.00;100830.66;5073191;28;20040;-78
2022/11/06 11:58:25;;;;;;;6.50;1.90;;;;;;;10.83;100.00;100834.16;5082135;27;20055;-78
2022/11/06 12:00:58;;;;;;;4.32;2.10;;;;;;;10.77;100.00;100815.69;5098100;28;20052;-79
2022/11/06 12:03:34;;;;;;;11.63;2.40;;;;;;;10.72;100.00;100806.91;5048157;28;20324;-78